createdAt,value
2017-10-03T00:00:48.748Z,36.3
2017-10-03T00:01:48.901Z,36.3
2017-10-03T00:02:48.981Z,36.3
2017-10-03T00:03:48.897Z,36.3
2017-10-03T00:04:49.022Z,36.3
2017-10-03T00:05:48.954Z,36.3
2017-10-03T00:06:48.991Z,36.3
2017-10-03T00:07:49.018Z,36.2
2017-10-03T00:08:49.006Z,36.2
2017-10-03T00:09:49.031Z,36.2
2017-10-03T00:10:49.172Z,36.2
2017-10-03T00:11:49.622Z,36.2
2017-10-03T00:12:49.182Z,36.3
2017-10-03T00:13:49.886Z,36.3
2017-10-03T00:14:49.827Z,36.3
2017-10-03T00:15:50.056Z,36.3
2017-10-03T00:16:49.367Z,36.3
2017-10-03T00:17:49.480Z,36.3
2017-10-03T00:18:49.497Z,36.3
2017-10-03T00:19:49.619Z,36.3
2017-10-03T00:20:49.540Z,36.3
2017-10-03T00:21:50.094Z,36.2
2017-10-03T00:22:49.608Z,36.2
2017-10-03T00:23:49.640Z,36.2
2017-10-03T00:24:49.835Z,36.2
2017-10-03T00:25:49.816Z,36.2
2017-10-03T00:26:49.951Z,36.2
2017-10-03T00:27:49.874Z,36.2
2017-10-03T00:28:49.928Z,36.2
2017-10-03T00:29:49.935Z,36.2
2017-10-03T00:30:49.975Z,36.2
2017-10-03T00:31:50.005Z,36.2
2017-10-03T00:32:50.213Z,36.2
2017-10-03T00:33:50.295Z,36.2
2017-10-03T00:34:50.313Z,36.2
2017-10-03T00:35:50.301Z,36.2
2017-10-03T00:36:50.402Z,36.2
2017-10-03T00:37:50.509Z,36.2
2017-10-03T00:38:50.570Z,36.2
2017-10-03T00:39:50.563Z,36.2
2017-10-03T00:40:50.612Z,36.2
2017-10-03T00:41:50.515Z,36.2
2017-10-03T00:42:51.405Z,36.2
2017-10-03T00:43:50.618Z,36.2
2017-10-03T00:44:50.816Z,36.2
2017-10-03T00:45:50.705Z,36.2
2017-10-03T00:46:50.860Z,36.2
2017-10-03T00:47:50.810Z,36.2
2017-10-03T00:48:51.452Z,36.2
2017-10-03T00:49:50.890Z,36.2
2017-10-03T00:50:51.592Z,36.2
2017-10-03T00:51:50.924Z,36.2
2017-10-03T00:52:51.059Z,36.2
2017-10-03T00:53:51.712Z,36.2
2017-10-03T00:54:51.172Z,36.2
2017-10-03T00:55:51.027Z,36.2
2017-10-03T00:56:51.154Z,36.2
2017-10-03T00:57:51.219Z,36.2
2017-10-03T00:58:51.345Z,36.2
2017-10-03T00:59:52.332Z,36.2
2017-10-03T01:00:52.432Z,36.2
2017-10-03T01:01:51.557Z,36.2
2017-10-03T01:02:51.416Z,36.2
2017-10-03T01:03:51.571Z,36.2
2017-10-03T01:04:52.288Z,36.2
2017-10-03T01:05:52.218Z,36.2
2017-10-03T01:06:51.781Z,36.2
2017-10-03T01:07:52.388Z,36.2
2017-10-03T01:08:51.856Z,36.2
2017-10-03T01:09:51.822Z,36.2
2017-10-03T01:10:52.051Z,36.2
2017-10-03T01:11:53.231Z,36.2
2017-10-03T01:12:52.696Z,36.2
2017-10-03T01:13:52.032Z,36.2
2017-10-03T01:14:52.183Z,36.2
2017-10-03T01:15:52.192Z,36.2
2017-10-03T01:16:52.802Z,36.2
2017-10-03T01:17:52.141Z,36.2
2017-10-03T01:18:52.887Z,36.2
2017-10-03T01:19:57.566Z,36.2
2017-10-03T01:20:52.330Z,36.2
2017-10-03T01:21:52.346Z,36.2
2017-10-03T01:22:52.329Z,36.2
2017-10-03T01:23:53.058Z,36.2
2017-10-03T01:24:53.001Z,36.2
2017-10-03T01:25:52.646Z,36.2
2017-10-03T01:26:52.653Z,36.2
2017-10-03T01:27:52.811Z,36.2
2017-10-03T01:28:52.668Z,36.2
2017-10-03T01:29:52.855Z,36.2
2017-10-03T01:30:52.866Z,36.2
2017-10-03T01:31:53.549Z,36.2
2017-10-03T01:32:52.829Z,36.2
2017-10-03T01:33:53.038Z,36.2
2017-10-03T01:34:53.039Z,36.2
2017-10-03T01:35:53.100Z,36.2
2017-10-03T01:36:53.169Z,36.2
2017-10-03T01:37:53.154Z,36.2
2017-10-03T01:38:53.221Z,36.2
2017-10-03T01:39:53.293Z,36.2
2017-10-03T01:40:53.218Z,36.2
2017-10-03T01:41:53.314Z,36.2
2017-10-03T01:42:53.316Z,36.2
2017-10-03T01:43:53.544Z,36.2
2017-10-03T01:44:53.722Z,36.2
2017-10-03T01:45:53.616Z,36.2
2017-10-03T01:46:53.823Z,36.2
2017-10-03T01:47:53.894Z,36.2
2017-10-03T01:48:54.430Z,36.2
2017-10-03T01:49:54.395Z,36.2
2017-10-03T01:50:54.010Z,36.2
2017-10-03T01:51:54.522Z,36.2
2017-10-03T01:52:54.670Z,36.2
2017-10-03T01:53:54.093Z,36.2
2017-10-03T01:54:54.131Z,36.2
2017-10-03T01:55:54.187Z,36.2
2017-10-03T01:56:54.269Z,36.2
2017-10-03T01:57:54.315Z,36.2
2017-10-03T01:58:54.354Z,36.2
2017-10-03T01:59:54.487Z,36.2
2017-10-03T02:00:54.461Z,36.1
2017-10-03T02:01:54.475Z,36.2
2017-10-03T02:02:54.706Z,36.2
2017-10-03T02:03:54.614Z,36.2
2017-10-03T02:04:54.703Z,36.2
2017-10-03T02:05:55.375Z,36.2
2017-10-03T02:06:55.358Z,36.2
2017-10-03T02:07:54.827Z,36.2
2017-10-03T02:08:54.713Z,36.2
2017-10-03T02:09:54.862Z,36.1
2017-10-03T02:10:54.882Z,36.1
2017-10-03T02:11:54.801Z,36.2
2017-10-03T02:12:54.927Z,36.2
2017-10-03T02:13:54.871Z,36.2
2017-10-03T02:14:54.847Z,36.2
2017-10-03T02:15:55.061Z,36.2
2017-10-03T02:16:55.041Z,36.2
2017-10-03T02:17:55.056Z,36.2
2017-10-03T02:18:55.099Z,36.2
2017-10-03T02:19:55.304Z,36.2
2017-10-03T02:20:55.334Z,36.1
2017-10-03T02:21:55.247Z,36.2
2017-10-03T02:22:55.327Z,36.1
2017-10-03T02:23:56.211Z,36.1
2017-10-03T02:24:55.567Z,36.1
2017-10-03T02:25:56.154Z,36.1
2017-10-03T02:26:55.655Z,36.1
2017-10-03T02:27:55.652Z,36.1
2017-10-03T02:28:55.616Z,36.1
2017-10-03T02:29:55.719Z,36.1
2017-10-03T02:30:55.695Z,36.2
2017-10-03T02:31:56.375Z,36.2
2017-10-03T02:32:55.919Z,36.2
2017-10-03T02:33:55.865Z,36.2
2017-10-03T02:34:55.994Z,36.2
2017-10-03T02:35:56.017Z,36.2
2017-10-03T02:36:56.086Z,36.1
2017-10-03T02:37:56.105Z,36.1
2017-10-03T02:38:56.202Z,36.1
2017-10-03T02:39:56.042Z,36.1
2017-10-03T02:40:56.186Z,36.1
2017-10-03T02:41:56.239Z,36.1
2017-10-03T02:42:56.132Z,36.1
2017-10-03T02:43:56.270Z,36.1
2017-10-03T02:44:56.258Z,36.1
2017-10-03T02:45:56.273Z,36.1
2017-10-03T02:46:56.364Z,36.2
2017-10-03T02:47:57.312Z,36.2
2017-10-03T02:48:56.596Z,36.1
2017-10-03T02:49:56.701Z,36.1
2017-10-03T02:50:56.759Z,36.1
2017-10-03T02:51:56.852Z,36.1
2017-10-03T02:52:56.785Z,36.2
2017-10-03T02:53:56.764Z,36.1
2017-10-03T02:54:56.776Z,36.1
2017-10-03T02:55:56.908Z,36.2
2017-10-03T02:56:56.828Z,36.1
2017-10-03T02:57:57.047Z,36.1
2017-10-03T02:58:57.122Z,36.1
2017-10-03T02:59:57.187Z,36.1
2017-10-03T03:00:57.191Z,36.1
2017-10-03T03:01:57.225Z,36.1
2017-10-03T03:02:57.409Z,36.1
2017-10-03T03:03:57.477Z,36.1
2017-10-03T03:04:57.520Z,36.1
2017-10-03T03:05:57.523Z,36.1
2017-10-03T03:06:57.453Z,36.1
2017-10-03T03:07:57.592Z,36.1
2017-10-03T03:08:57.621Z,36.1
2017-10-03T03:09:57.614Z,36.1
2017-10-03T03:10:57.650Z,36.1
2017-10-03T03:11:57.859Z,36.1
2017-10-03T03:12:57.790Z,36.1
2017-10-03T03:13:57.912Z,36.1
2017-10-03T03:14:57.936Z,36.1
2017-10-03T03:15:57.860Z,36.1
2017-10-03T03:16:58.056Z,36.1
2017-10-03T03:17:57.961Z,36.1
2017-10-03T03:18:58.006Z,36.1
2017-10-03T03:19:58.127Z,36.1
2017-10-03T03:20:58.306Z,36.1
2017-10-03T03:21:58.146Z,36.1
2017-10-03T03:22:58.267Z,36.1
2017-10-03T03:23:58.401Z,36.1
2017-10-03T03:24:58.311Z,36.1
2017-10-03T03:25:58.269Z,36.1
2017-10-03T03:26:58.509Z,36.1
2017-10-03T03:27:58.594Z,36.1
2017-10-03T03:28:58.665Z,36.1
2017-10-03T03:29:58.609Z,36.1
2017-10-03T03:30:58.621Z,36.1
2017-10-03T03:31:58.661Z,36.1
2017-10-03T03:32:58.876Z,36.1
2017-10-03T03:33:58.906Z,36.1
2017-10-03T03:34:58.966Z,36.1
2017-10-03T03:35:59.046Z,36.1
2017-10-03T03:36:59.079Z,36.1
2017-10-03T03:37:59.153Z,36.1
2017-10-03T03:38:59.120Z,36.1
2017-10-03T03:39:59.173Z,36.1
2017-10-03T03:40:59.227Z,36.1
2017-10-03T03:41:59.239Z,36.1
2017-10-03T03:42:59.215Z,36.1
2017-10-03T03:43:59.321Z,36.1
2017-10-03T03:44:59.445Z,36.1
2017-10-03T03:45:59.506Z,36.1
2017-10-03T03:46:59.402Z,36.1
2017-10-03T03:47:59.512Z,36.1
2017-10-03T03:48:59.643Z,36.1
2017-10-03T03:49:59.685Z,36.1
2017-10-03T03:50:59.595Z,36.1
2017-10-03T03:51:59.805Z,36.1
2017-10-03T03:52:59.738Z,36.1
2017-10-03T03:53:59.849Z,36.1
2017-10-03T03:55:00.053Z,36.1
2017-10-03T03:56:00.080Z,36.1
2017-10-03T03:57:00.035Z,36.1
2017-10-03T03:58:00.060Z,36.1
2017-10-03T03:59:00.162Z,36.1
2017-10-03T04:00:00.172Z,36.1
2017-10-03T04:01:00.326Z,36.1
2017-10-03T04:02:00.265Z,36.1
2017-10-03T04:03:00.385Z,36.1
2017-10-03T04:04:00.260Z,36.1
2017-10-03T04:05:00.388Z,36.1
2017-10-03T04:06:00.556Z,36.1
2017-10-03T04:07:00.610Z,36.1
2017-10-03T04:08:00.671Z,36.1
2017-10-03T04:09:00.628Z,36.1
2017-10-03T04:10:00.771Z,36.1
2017-10-03T04:11:00.817Z,36.1
2017-10-03T04:12:00.735Z,36.1
2017-10-03T04:13:00.947Z,36.1
2017-10-03T04:14:01.036Z,36.1
2017-10-03T04:15:01.043Z,36.1
2017-10-03T04:16:01.019Z,36.1
2017-10-03T04:17:01.040Z,36.1
2017-10-03T04:18:00.996Z,36.1
2017-10-03T04:19:01.156Z,36.1
2017-10-03T04:20:01.089Z,36.1
2017-10-03T04:21:01.146Z,36.1
2017-10-03T04:22:01.317Z,36.1
2017-10-03T04:23:01.393Z,36.1
2017-10-03T04:24:01.440Z,36.1
2017-10-03T04:25:01.363Z,36.1
2017-10-03T04:26:01.495Z,36.1
2017-10-03T04:27:01.410Z,36.1
2017-10-03T04:28:01.412Z,36.1
2017-10-03T04:29:01.561Z,36.1
2017-10-03T04:30:01.646Z,36.1
2017-10-03T04:31:01.693Z,36.1
2017-10-03T04:32:01.717Z,36.1
2017-10-03T04:33:01.662Z,36.1
2017-10-03T04:34:01.838Z,36.1
2017-10-03T04:35:01.834Z,36.1
2017-10-03T04:36:01.796Z,36.1
2017-10-03T04:37:01.861Z,36.1
2017-10-03T04:38:02.054Z,36.1
2017-10-03T04:39:01.844Z,36.1
2017-10-03T04:40:02.561Z,36.1
2017-10-03T04:41:02.648Z,36.1
2017-10-03T04:42:01.889Z,36.1
2017-10-03T04:43:02.025Z,36.1
2017-10-03T04:44:01.951Z,36.1
2017-10-03T04:45:02.165Z,36.1
2017-10-03T04:46:02.076Z,36.1
2017-10-03T04:47:02.083Z,36.1
2017-10-03T04:48:02.283Z,36.1
2017-10-03T04:49:02.197Z,36.1
2017-10-03T04:50:02.338Z,36.1
2017-10-03T04:51:02.251Z,36.1
2017-10-03T04:52:02.379Z,36.1
2017-10-03T04:53:02.505Z,36.1
2017-10-03T04:54:02.430Z,36.1
2017-10-03T04:55:02.619Z,36.1
2017-10-03T04:56:02.539Z,36.1
2017-10-03T04:57:02.591Z,36.1
2017-10-03T04:58:02.850Z,36.1
2017-10-03T04:59:02.776Z,36.1
2017-10-03T05:00:02.885Z,36
2017-10-03T05:01:03.015Z,36
2017-10-03T05:02:02.908Z,36.1
2017-10-03T05:03:02.977Z,36.1
2017-10-03T05:04:03.169Z,36.1
2017-10-03T05:05:03.031Z,36.1
2017-10-03T05:06:03.169Z,36
2017-10-03T05:07:03.231Z,36
2017-10-03T05:08:03.229Z,36
2017-10-03T05:09:03.304Z,36.1
2017-10-03T05:10:03.366Z,36
2017-10-03T05:11:03.372Z,36
2017-10-03T05:12:03.481Z,36
2017-10-03T05:13:03.533Z,36
2017-10-03T05:14:03.453Z,36
2017-10-03T05:15:03.616Z,36
2017-10-03T05:16:03.547Z,36
2017-10-03T05:17:03.644Z,36.1
2017-10-03T05:18:03.656Z,36.1
2017-10-03T05:19:03.648Z,36
2017-10-03T05:20:03.704Z,36
2017-10-03T05:21:03.813Z,36
2017-10-03T05:22:03.947Z,36
2017-10-03T05:23:03.986Z,36
2017-10-03T05:24:03.996Z,36
2017-10-03T05:25:04.032Z,36
2017-10-03T05:26:04.144Z,36
2017-10-03T05:27:04.192Z,36
2017-10-03T05:28:04.232Z,36
2017-10-03T05:29:04.209Z,36
2017-10-03T05:30:04.278Z,36
2017-10-03T05:31:04.290Z,36
2017-10-03T05:32:04.310Z,36
2017-10-03T05:33:04.416Z,36
2017-10-03T05:34:04.440Z,36
2017-10-03T05:35:04.492Z,36
2017-10-03T05:36:04.486Z,36
2017-10-03T05:37:04.504Z,36
2017-10-03T05:38:04.472Z,36
2017-10-03T05:39:04.586Z,36
2017-10-03T05:40:04.513Z,36
2017-10-03T05:41:04.575Z,36
2017-10-03T05:42:04.718Z,36
2017-10-03T05:43:04.756Z,36
2017-10-03T05:44:04.686Z,36
2017-10-03T05:45:04.749Z,36
2017-10-03T05:46:04.803Z,36
2017-10-03T05:47:04.763Z,36
2017-10-03T05:48:04.785Z,36
2017-10-03T05:49:04.869Z,36
2017-10-03T05:50:05.099Z,36
2017-10-03T05:51:05.146Z,36
2017-10-03T05:52:05.086Z,36
2017-10-03T05:53:05.092Z,36
2017-10-03T05:54:05.164Z,36
2017-10-03T05:55:05.878Z,36
2017-10-03T05:56:05.275Z,36
2017-10-03T05:57:05.346Z,36
2017-10-03T05:58:05.376Z,36
2017-10-03T05:59:05.312Z,36
2017-10-03T06:00:05.480Z,36
2017-10-03T06:01:05.416Z,36
2017-10-03T06:02:05.444Z,36
2017-10-03T06:03:05.650Z,36
2017-10-03T06:04:05.673Z,36
2017-10-03T06:05:05.726Z,36
2017-10-03T06:06:05.749Z,36
2017-10-03T06:07:05.679Z,36
2017-10-03T06:08:05.896Z,36
2017-10-03T06:09:05.930Z,36
2017-10-03T06:10:05.840Z,36
2017-10-03T06:11:05.911Z,36
2017-10-03T06:12:06.042Z,36
2017-10-03T06:13:06.031Z,36
2017-10-03T06:14:06.154Z,36
2017-10-03T06:15:06.110Z,36
2017-10-03T06:16:06.145Z,36
2017-10-03T06:17:06.249Z,36
2017-10-03T06:18:06.364Z,36
2017-10-03T06:19:06.305Z,36
2017-10-03T06:20:06.520Z,36
2017-10-03T06:21:06.470Z,36
2017-10-03T06:22:06.575Z,36
2017-10-03T06:23:06.588Z,36
2017-10-03T06:24:06.799Z,36
2017-10-03T06:25:06.704Z,36
2017-10-03T06:26:07.952Z,36
2017-10-03T06:27:06.838Z,36
2017-10-03T06:28:06.873Z,36
2017-10-03T06:29:06.977Z,36
2017-10-03T06:30:07.285Z,36
2017-10-03T06:31:07.103Z,35.9
2017-10-03T06:32:07.007Z,35.9
2017-10-03T06:33:07.226Z,35.9
2017-10-03T06:34:07.252Z,35.9
2017-10-03T06:35:07.273Z,35.9
2017-10-03T06:36:07.544Z,36
2017-10-03T06:37:07.288Z,36
2017-10-03T06:38:07.285Z,36
2017-10-03T06:39:07.452Z,35.9
2017-10-03T06:40:07.528Z,35.9
2017-10-03T06:41:07.486Z,35.9
2017-10-03T06:42:07.852Z,35.9
2017-10-03T06:43:07.629Z,35.9
2017-10-03T06:44:07.695Z,35.9
2017-10-03T06:45:07.731Z,35.9
2017-10-03T06:46:07.725Z,35.9
2017-10-03T06:47:07.945Z,35.9
2017-10-03T06:48:08.158Z,35.8
2017-10-03T06:49:08.000Z,35.8
2017-10-03T06:50:08.043Z,35.8
2017-10-03T06:51:08.128Z,35.8
2017-10-03T06:52:08.038Z,35.7
2017-10-03T06:53:08.171Z,35.7
2017-10-03T06:54:08.515Z,35.6
2017-10-03T06:55:08.262Z,35.6
2017-10-03T06:56:08.242Z,35.6
2017-10-03T06:57:08.453Z,35.6
2017-10-03T06:58:08.534Z,35.5
2017-10-03T06:59:08.429Z,35.5
2017-10-03T07:00:08.886Z,35.5
2017-10-03T07:01:08.567Z,35.5
2017-10-03T07:02:08.600Z,35.5
2017-10-03T07:03:09.537Z,35.4
2017-10-03T07:04:08.870Z,35.4
2017-10-03T07:05:08.903Z,35.4
2017-10-03T07:06:09.196Z,35.4
2017-10-03T07:07:08.897Z,35.4
2017-10-03T07:08:08.909Z,35.4
2017-10-03T07:09:08.954Z,35.3
2017-10-03T07:10:09.036Z,35.3
2017-10-03T07:11:09.123Z,35.3
2017-10-03T07:12:10.499Z,35.3
2017-10-03T07:13:09.236Z,35.3
2017-10-03T07:14:09.348Z,35.3
2017-10-03T07:15:09.402Z,35.3
2017-10-03T07:16:09.503Z,35.3
2017-10-03T07:17:09.565Z,35.3
2017-10-03T07:18:09.849Z,35.3
2017-10-03T07:19:09.706Z,35.3
2017-10-03T07:20:09.789Z,35.3
2017-10-03T07:21:09.686Z,35.3
2017-10-03T07:22:09.796Z,35.3
2017-10-03T07:23:09.857Z,35.3
2017-10-03T07:24:10.121Z,35.3
2017-10-03T07:25:10.033Z,35.3
2017-10-03T07:26:10.075Z,35.3
2017-10-03T07:27:09.994Z,35.3
2017-10-03T07:28:10.110Z,35.3
2017-10-03T07:29:10.126Z,35.3
2017-10-03T07:30:10.489Z,35.3
2017-10-03T07:31:10.109Z,35.3
2017-10-03T07:32:10.113Z,35.3
2017-10-03T07:33:10.211Z,35.3
2017-10-03T07:34:10.337Z,35.3
2017-10-03T07:35:10.234Z,35.2
2017-10-03T07:36:10.638Z,35.2
2017-10-03T07:37:10.323Z,35.2
2017-10-03T07:38:10.476Z,35.2
2017-10-03T07:39:10.399Z,35.2
2017-10-03T07:40:10.482Z,35.2
2017-10-03T07:41:10.535Z,35.1
2017-10-03T07:42:10.860Z,35.1
2017-10-03T07:43:10.616Z,35.1
2017-10-03T07:44:10.586Z,35
2017-10-03T07:45:10.867Z,35
2017-10-03T07:46:10.873Z,35
2017-10-03T07:47:10.921Z,35
2017-10-03T07:48:11.124Z,35
2017-10-03T07:49:11.064Z,34.9
2017-10-03T07:50:11.020Z,34.9
2017-10-03T07:51:10.920Z,34.9
2017-10-03T07:52:11.040Z,34.9
2017-10-03T07:53:11.109Z,34.9
2017-10-03T07:54:11.345Z,34.9
2017-10-03T07:55:11.227Z,34.9
2017-10-03T07:56:11.239Z,34.9
2017-10-03T07:57:11.273Z,34.9
2017-10-03T07:58:11.192Z,34.9
2017-10-03T07:59:11.301Z,34.9
2017-10-03T08:00:11.742Z,34.9
2017-10-03T08:01:11.366Z,34.9
2017-10-03T08:02:11.591Z,34.9
2017-10-03T08:03:11.674Z,34.9
2017-10-03T08:04:11.697Z,34.8
2017-10-03T08:05:11.736Z,34.8
2017-10-03T08:06:12.027Z,34.9
2017-10-03T08:07:11.694Z,34.9
2017-10-03T08:08:11.899Z,34.9
2017-10-03T08:09:11.942Z,34.8
2017-10-03T08:10:11.986Z,34.8
2017-10-03T08:11:11.924Z,34.8
2017-10-03T08:12:12.218Z,34.8
2017-10-03T08:13:12.087Z,34.8
2017-10-03T08:14:12.154Z,34.8
2017-10-03T08:15:12.361Z,34.8
2017-10-03T08:16:12.105Z,34.8
2017-10-03T08:17:12.288Z,34.8
2017-10-03T08:18:12.441Z,34.8
2017-10-03T08:19:12.353Z,34.8
2017-10-03T08:20:12.242Z,34.8
2017-10-03T08:21:12.394Z,34.8
2017-10-03T08:22:12.522Z,34.8
2017-10-03T08:23:12.555Z,34.8
2017-10-03T08:24:12.753Z,34.8
2017-10-03T08:25:12.725Z,34.8
2017-10-03T08:26:12.654Z,34.8
2017-10-03T08:27:12.721Z,34.8
2017-10-03T08:28:12.764Z,34.8
2017-10-03T08:29:12.802Z,34.8
2017-10-03T08:30:13.166Z,34.8
2017-10-03T08:31:12.921Z,34.8
2017-10-03T08:32:12.921Z,34.8
2017-10-03T08:33:13.079Z,34.8
2017-10-03T08:34:13.126Z,34.8
2017-10-03T08:35:13.160Z,34.8
2017-10-03T08:36:13.480Z,34.8
2017-10-03T08:37:13.269Z,34.8
2017-10-03T08:38:13.203Z,34.8
2017-10-03T08:39:13.409Z,34.8
2017-10-03T08:40:13.319Z,34.8
2017-10-03T08:41:13.432Z,34.8
2017-10-03T08:42:13.822Z,34.8
2017-10-03T08:43:13.514Z,34.8
2017-10-03T08:44:13.551Z,34.8
2017-10-03T08:45:13.689Z,34.8
2017-10-03T08:46:13.619Z,34.8
2017-10-03T08:47:13.599Z,34.8
2017-10-03T08:48:13.851Z,34.8
2017-10-03T08:49:13.681Z,34.8
2017-10-03T08:50:13.813Z,34.8
2017-10-03T08:51:13.794Z,34.8
2017-10-03T08:52:13.727Z,34.8
2017-10-03T08:53:13.963Z,34.8
2017-10-03T08:54:14.234Z,34.8
2017-10-03T08:55:14.028Z,34.8
2017-10-03T08:56:14.054Z,34.8
2017-10-03T08:57:14.186Z,34.8
2017-10-03T08:58:14.117Z,34.8
2017-10-03T08:59:14.343Z,34.8
2017-10-03T09:00:14.612Z,34.8
2017-10-03T09:01:14.295Z,34.8
2017-10-03T09:02:14.325Z,34.8
2017-10-03T09:03:14.366Z,34.8
2017-10-03T09:04:14.505Z,34.8
2017-10-03T09:05:14.547Z,34.8
2017-10-03T09:06:15.670Z,34.8
2017-10-03T09:07:14.530Z,34.8
2017-10-03T09:08:14.550Z,34.8
2017-10-03T09:09:14.686Z,34.8
2017-10-03T09:10:14.594Z,34.8
2017-10-03T09:11:14.751Z,34.8
2017-10-03T09:12:15.076Z,34.8
2017-10-03T09:13:14.672Z,34.8
2017-10-03T09:14:14.657Z,34.8
2017-10-03T09:15:14.769Z,34.8
2017-10-03T09:16:14.873Z,34.8
2017-10-03T09:17:15.079Z,34.8
2017-10-03T09:18:15.161Z,34.8
2017-10-03T09:19:14.949Z,34.8
2017-10-03T09:20:15.077Z,34.8
2017-10-03T09:21:15.758Z,34.8
2017-10-03T09:22:15.213Z,34.8
2017-10-03T09:23:15.099Z,34.8
2017-10-03T09:24:15.510Z,34.8
2017-10-03T09:25:15.285Z,34.7
2017-10-03T09:26:15.273Z,34.7
2017-10-03T09:27:15.269Z,34.7
2017-10-03T09:28:15.499Z,34.7
2017-10-03T09:29:15.563Z,34.7
2017-10-03T09:30:16.351Z,34.7
2017-10-03T09:31:15.582Z,34.7
2017-10-03T09:32:15.651Z,34.7
2017-10-03T09:33:15.750Z,34.6
2017-10-03T09:34:16.407Z,34.6
2017-10-03T09:35:15.775Z,34.6
2017-10-03T09:36:16.176Z,34.6
2017-10-03T09:37:15.947Z,34.6
2017-10-03T09:38:15.874Z,34.6
2017-10-03T09:39:15.978Z,34.6
2017-10-03T09:40:16.662Z,34.6
2017-10-03T09:41:16.025Z,34.6
2017-10-03T09:42:16.957Z,34.6
2017-10-03T09:43:16.064Z,34.6
2017-10-03T09:44:16.870Z,34.6
2017-10-03T09:45:16.141Z,34.6
2017-10-03T09:46:16.172Z,34.6
2017-10-03T09:47:16.292Z,34.6
2017-10-03T09:48:16.614Z,34.6
2017-10-03T09:49:16.410Z,34.6
2017-10-03T09:50:17.104Z,34.6
2017-10-03T09:51:16.521Z,34.5
2017-10-03T09:52:16.435Z,34.5
2017-10-03T09:53:16.609Z,34.5
2017-10-03T09:54:16.959Z,34.5
2017-10-03T09:55:17.328Z,34.5
2017-10-03T09:56:16.730Z,34.5
2017-10-03T09:57:16.727Z,34.5
2017-10-03T09:58:16.812Z,34.5
2017-10-03T09:59:16.865Z,34.5
2017-10-03T10:00:17.124Z,34.5
2017-10-03T10:01:16.917Z,34.5
2017-10-03T10:02:16.997Z,34.5
2017-10-03T10:03:17.900Z,34.5
2017-10-03T10:04:17.452Z,34.5
2017-10-03T10:05:17.280Z,34.5
2017-10-03T10:06:17.679Z,34.5
2017-10-03T10:07:17.281Z,34.5
2017-10-03T10:08:17.293Z,34.5
2017-10-03T10:09:17.487Z,34.5
2017-10-03T10:10:18.195Z,34.5
2017-10-03T10:11:17.659Z,34.5
2017-10-03T10:12:17.925Z,34.5
2017-10-03T10:13:18.224Z,34.5
2017-10-03T10:14:17.655Z,34.5
2017-10-03T10:15:17.751Z,34.5
2017-10-03T10:16:17.897Z,34.5
2017-10-03T10:17:17.765Z,34.5
2017-10-03T10:18:19.565Z,34.4
2017-10-03T10:19:17.982Z,34.4
2017-10-03T10:20:17.828Z,34.4
2017-10-03T10:21:17.870Z,34.4
2017-10-03T10:22:18.659Z,34.5
2017-10-03T10:23:18.187Z,34.5
2017-10-03T10:24:18.378Z,34.5
2017-10-03T10:25:18.245Z,34.4
2017-10-03T10:26:18.644Z,34.5
2017-10-03T10:27:18.302Z,34.5
2017-10-03T10:28:18.236Z,34.5
2017-10-03T10:29:18.312Z,34.4
2017-10-03T10:30:18.740Z,34.5
2017-10-03T10:31:18.384Z,34.5
2017-10-03T10:32:18.411Z,34.4
2017-10-03T10:33:18.353Z,34.4
2017-10-03T10:34:18.565Z,34.4
2017-10-03T10:35:18.471Z,34.4
2017-10-03T10:36:18.955Z,34.4
2017-10-03T10:37:18.579Z,34.3
2017-10-03T10:38:18.698Z,34.3
2017-10-03T10:39:18.735Z,34.3
2017-10-03T10:40:18.768Z,34.3
2017-10-03T10:41:18.685Z,34.3
2017-10-03T10:42:18.953Z,34.3
2017-10-03T10:43:18.948Z,34.2
2017-10-03T10:44:18.877Z,34.2
2017-10-03T10:45:18.992Z,34.2
2017-10-03T10:46:18.960Z,34.2
2017-10-03T10:47:19.160Z,34.2
2017-10-03T10:48:19.316Z,34.2
2017-10-03T10:49:19.055Z,34.2
2017-10-03T10:50:19.186Z,34.2
2017-10-03T10:51:19.208Z,34.2
2017-10-03T10:52:19.392Z,34.2
2017-10-03T10:53:19.369Z,34.2
2017-10-03T10:54:19.789Z,34.2
2017-10-03T10:55:19.580Z,34.2
2017-10-03T10:56:19.456Z,34.2
2017-10-03T10:57:19.530Z,34.2
2017-10-03T10:58:19.730Z,34.2
2017-10-03T10:59:19.750Z,34.2
2017-10-03T11:00:19.942Z,34.2
2017-10-03T11:01:19.832Z,34.2
2017-10-03T11:02:20.481Z,34.2
2017-10-03T11:03:19.922Z,34.2
2017-10-03T11:04:19.841Z,34.2
2017-10-03T11:05:20.013Z,34.2
2017-10-03T11:06:20.289Z,34.2
2017-10-03T11:07:20.005Z,34.2
2017-10-03T11:08:20.073Z,34.2
2017-10-03T11:09:20.204Z,34.2
2017-10-03T11:10:20.344Z,34.2
2017-10-03T11:11:20.275Z,34.2
2017-10-03T11:12:20.690Z,34.2
2017-10-03T11:13:20.398Z,34.1
2017-10-03T11:14:20.498Z,34.1
2017-10-03T11:15:20.674Z,34.1
2017-10-03T11:16:20.731Z,34.1
2017-10-03T11:17:20.739Z,34.1
2017-10-03T11:18:21.066Z,34
2017-10-03T11:19:21.933Z,34
2017-10-03T11:20:20.831Z,34
2017-10-03T11:21:20.847Z,34
2017-10-03T11:22:21.026Z,34
2017-10-03T11:23:21.064Z,34
2017-10-03T11:24:21.142Z,34
2017-10-03T11:25:21.055Z,34
2017-10-03T11:26:21.097Z,34
2017-10-03T11:27:21.223Z,33.9
2017-10-03T11:28:22.666Z,33.9
2017-10-03T11:29:21.265Z,33.9
2017-10-03T11:30:21.398Z,33.9
2017-10-03T11:31:21.280Z,33.9
2017-10-03T11:32:21.405Z,33.9
2017-10-03T11:33:21.324Z,33.9
2017-10-03T11:34:21.466Z,34
2017-10-03T11:35:21.372Z,34
2017-10-03T11:36:21.613Z,34
2017-10-03T11:37:21.709Z,34
2017-10-03T11:38:21.632Z,34
2017-10-03T11:39:21.757Z,34
2017-10-03T11:40:21.787Z,33.9
2017-10-03T11:41:21.719Z,33.9
2017-10-03T11:42:21.892Z,33.9
2017-10-03T11:43:21.831Z,33.9
2017-10-03T11:44:21.961Z,33.9
2017-10-03T11:45:22.029Z,33.9
2017-10-03T11:46:22.022Z,33.9
2017-10-03T11:47:22.159Z,33.8
2017-10-03T11:48:22.233Z,33.9
2017-10-03T11:49:22.261Z,33.9
2017-10-03T11:50:22.282Z,33.8
2017-10-03T11:51:22.198Z,33.9
2017-10-03T11:52:22.330Z,33.8
2017-10-03T11:53:22.481Z,33.8
2017-10-03T11:54:22.505Z,33.8
2017-10-03T11:55:22.448Z,33.8
2017-10-03T11:56:22.633Z,33.8
2017-10-03T11:57:22.535Z,33.8
2017-10-03T11:58:22.784Z,33.8
2017-10-03T11:59:22.789Z,33.8
2017-10-03T12:00:22.812Z,33.8
2017-10-03T12:01:22.699Z,33.8
2017-10-03T12:02:22.782Z,33.8
2017-10-03T12:03:22.880Z,33.8
2017-10-03T12:04:23.723Z,33.8
2017-10-03T12:05:22.964Z,33.8
2017-10-03T12:06:23.024Z,33.9
2017-10-03T12:07:23.103Z,33.9
2017-10-03T12:08:23.251Z,33.9
2017-10-03T12:09:23.270Z,33.9
2017-10-03T12:10:23.373Z,33.9
2017-10-03T12:11:23.408Z,33.9
2017-10-03T12:12:23.481Z,33.8
2017-10-03T12:13:24.910Z,33.8
2017-10-03T12:14:23.548Z,33.8
2017-10-03T12:15:23.685Z,33.8
2017-10-03T12:16:23.734Z,33.8
2017-10-03T12:17:23.662Z,33.8
2017-10-03T12:18:23.646Z,33.8
2017-10-03T12:19:23.856Z,33.8
2017-10-03T12:20:23.921Z,33.8
2017-10-03T12:21:23.993Z,33.8
2017-10-03T12:22:23.885Z,33.8
2017-10-03T12:23:23.931Z,33.8
2017-10-03T12:24:24.072Z,33.8
2017-10-03T12:25:24.103Z,33.8
2017-10-03T12:26:24.247Z,33.8
2017-10-03T12:27:24.281Z,33.8
2017-10-03T12:28:24.290Z,33.8
2017-10-03T12:29:24.264Z,33.8
2017-10-03T12:30:24.281Z,33.8
2017-10-03T12:31:24.473Z,33.8
2017-10-03T12:32:24.386Z,33.8
2017-10-03T12:33:24.447Z,33.8
2017-10-03T12:34:24.541Z,33.8
2017-10-03T12:35:24.754Z,33.8
2017-10-03T12:36:24.822Z,33.8
2017-10-03T12:37:24.715Z,33.8
2017-10-03T12:38:24.869Z,33.8
2017-10-03T12:39:24.795Z,33.8
2017-10-03T12:40:24.911Z,33.9
2017-10-03T12:41:24.833Z,33.9
2017-10-03T12:42:24.867Z,33.9
2017-10-03T12:43:25.670Z,33.9
2017-10-03T12:44:25.178Z,33.9
2017-10-03T12:45:25.153Z,33.9
2017-10-03T12:46:25.144Z,33.9
2017-10-03T12:47:25.333Z,33.9
2017-10-03T12:48:25.416Z,33.9
2017-10-03T12:49:25.407Z,33.9
2017-10-03T12:50:25.430Z,33.9
2017-10-03T12:51:25.497Z,33.9
2017-10-03T12:52:25.625Z,33.9
2017-10-03T12:53:25.797Z,34
2017-10-03T12:54:25.884Z,34
2017-10-03T12:55:25.914Z,34
2017-10-03T12:56:26.016Z,34
2017-10-03T12:57:25.963Z,34
2017-10-03T12:58:25.967Z,34
2017-10-03T12:59:26.077Z,34
2017-10-03T13:00:26.115Z,34
2017-10-03T13:01:26.158Z,34
2017-10-03T13:02:26.077Z,34
2017-10-03T13:03:26.105Z,34
2017-10-03T13:04:26.128Z,34
2017-10-03T13:05:26.136Z,34
2017-10-03T13:06:26.312Z,34
2017-10-03T13:07:26.371Z,34
2017-10-03T13:08:26.343Z,34
2017-10-03T13:09:26.549Z,34
2017-10-03T13:10:26.417Z,34
2017-10-03T13:11:26.558Z,34
2017-10-03T13:12:26.499Z,34
2017-10-03T13:13:26.711Z,34
2017-10-03T13:14:27.389Z,34.1
2017-10-03T13:15:26.788Z,34
2017-10-03T13:16:26.694Z,34.1
2017-10-03T13:17:26.829Z,34
2017-10-03T13:18:26.872Z,34.1
2017-10-03T13:19:26.790Z,34.1
2017-10-03T13:20:26.884Z,34.1
2017-10-03T13:21:26.917Z,34.1
2017-10-03T13:22:26.934Z,34.1
2017-10-03T13:23:27.050Z,34.1
2017-10-03T13:24:26.955Z,34.1
2017-10-03T13:25:26.970Z,34.1
2017-10-03T13:26:27.171Z,34.1
2017-10-03T13:27:27.098Z,34.1
2017-10-03T13:28:27.211Z,34.1